sensor_id;sensor_type;location;lat;lon;timestamp;temperature;humidity
9177;DHT22;4623;54.310;10.112;2023-02-01T00:01:39;4.60;99.90
9177;DHT22;4623;54.310;10.112;2023-02-01T00:04:05;4.60;99.90
9177;DHT22;4623;54.310;10.112;2023-02-01T00:06:31;4.60;99.90
9177;DHT22;4623;54.310;10.112;2023-02-01T00:08:56;4.70;99.90
9177;DHT22;4623;54.310;10.112;2023-02-01T00:11:23;4.70;99.90
9177;DHT22;4623;54.310;10.112;2023-02-01T00:13:49;4.80;99.90
9177;DHT22;4623;54.310;10.112;2023-02-01T00:16:24;4.80;99.90
9177;DHT22;4623;54.310;10.112;2023-02-01T00:18:52;4.80;99.90
9177;DHT22;4623;54.310;10.112;2023-02-01T00:21:20;4.90;99.90
9177;DHT22;4623;54.310;10.112;2023-02-01T00:23:46;4.90;99.90
9177;DHT22;4623;54.310;10.112;2023-02-01T00:26:40;4.90;99.90
9177;DHT22;4623;54.310;10.112;2023-02-01T00:29:07;4.90;99.90
9177;DHT22;4623;54.310;10.112;2023-02-01T00:31:34;5.00;99.90
9177;DHT22;4623;54.310;10.112;2023-02-01T00:34:00;5.10;99.90
9177;DHT22;4623;54.310;10.112;2023-02-01T00:36:25;5.00;99.90
9177;DHT22;4623;54.310;10.112;2023-02-01T00:42:06;5.20;99.90
9177;DHT22;4623;54.310;10.112;2023-02-01T00:44:32;5.20;99.90
9177;DHT22;4623;54.310;10.112;2023-02-01T00:47:00;5.30;99.90
9177;DHT22;4623;54.310;10.112;2023-02-01T00:49:25;5.40;99.90
9177;DHT22;4623;54.310;10.112;2023-02-01T00:51:51;5.40;99.90
9177;DHT22;4623;54.310;10.112;2023-02-01T00:54:16;5.50;99.90
9177;DHT22;4623;54.310;10.112;2023-02-01T00:56:42;5.60;99.90
9177;DHT22;4623;54.310;10.112;2023-02-01T00:59:11;5.70;99.90
9177;DHT22;4623;54.310;10.112;2023-02-01T01:01:36;5.70;99.90
9177;DHT22;4623;54.310;10.112;2023-02-01T01:04:02;5.70;99.90
9177;DHT22;4623;54.310;10.112;2023-02-01T01:06:30;5.70;99.90
9177;DHT22;4623;54.310;10.112;2023-02-01T01:08:58;5.70;99.90
9177;DHT22;4623;54.310;10.112;2023-02-01T01:11:26;5.70;99.90
9177;DHT22;4623;54.310;10.112;2023-02-01T01:13:53;5.80;99.90
9177;DHT22;4623;54.310;10.112;2023-02-01T01:16:20;5.80;99.90
9177;DHT22;4623;54.310;10.112;2023-02-01T01:18:46;5.80;99.90
9177;DHT22;4623;54.310;10.112;2023-02-01T01:21:14;5.80;99.90
9177;DHT22;4623;54.310;10.112;2023-02-01T01:23:40;5.90;99.90
9177;DHT22;4623;54.310;10.112;2023-02-01T01:26:07;5.90;99.90
9177;DHT22;4623;54.310;10.112;2023-02-01T01:28:33;5.80;99.90
9177;DHT22;4623;54.310;10.112;2023-02-01T01:30:58;5.80;99.90
9177;DHT22;4623;54.310;10.112;2023-02-01T01:33:24;5.80;99.90
9177;DHT22;4623;54.310;10.112;2023-02-01T01:35:50;5.80;99.90
9177;DHT22;4623;54.310;10.112;2023-02-01T01:38:15;5.80;99.90
9177;DHT22;4623;54.310;10.112;2023-02-01T01:40:45;5.80;99.90
9177;DHT22;4623;54.310;10.112;2023-02-01T01:43:19;5.80;99.90
9177;DHT22;4623;54.310;10.112;2023-02-01T01:45:46;5.80;99.90
9177;DHT22;4623;54.310;10.112;2023-02-01T01:50:47;5.90;99.90
9177;DHT22;4623;54.310;10.112;2023-02-01T01:53:18;5.90;99.90
9177;DHT22;4623;54.310;10.112;2023-02-01T01:55:45;6.00;99.90
9177;DHT22;4623;54.310;10.112;2023-02-01T01:58:15;6.00;99.90
9177;DHT22;4623;54.310;10.112;2023-02-01T02:00:43;6.00;99.90
9177;DHT22;4623;54.310;10.112;2023-02-01T02:03:30;6.00;99.90
9177;DHT22;4623;54.310;10.112;2023-02-01T02:05:59;6.00;99.90
9177;DHT22;4623;54.310;10.112;2023-02-01T02:08:27;6.00;99.90
9177;DHT22;4623;54.310;10.112;2023-02-01T02:10:53;5.90;99.90
9177;DHT22;4623;54.310;10.112;2023-02-01T02:13:25;5.90;99.90
9177;DHT22;4623;54.310;10.112;2023-02-01T02:16:14;5.90;99.90
9177;DHT22;4623;54.310;10.112;2023-02-01T02:19:04;5.90;99.90
9177;DHT22;4623;54.310;10.112;2023-02-01T02:24:32;6.00;99.90
9177;DHT22;4623;54.310;10.112;2023-02-01T02:36:00;6.10;99.90
9177;DHT22;4623;54.310;10.112;2023-02-01T02:38:32;6.10;99.90
9177;DHT22;4623;54.310;10.112;2023-02-01T02:41:08;6.00;99.90
9177;DHT22;4623;54.310;10.112;2023-02-01T02:46:32;6.00;99.90
9177;DHT22;4623;54.310;10.112;2023-02-01T02:51:51;6.10;99.90
9177;DHT22;4623;54.310;10.112;2023-02-01T02:54:40;6.10;99.90
9177;DHT22;4623;54.310;10.112;2023-02-01T02:57:28;6.10;99.90
9177;DHT22;4623;54.310;10.112;2023-02-01T03:00:24;6.10;99.90
9177;DHT22;4623;54.310;10.112;2023-02-01T03:03:08;6.10;99.90
9177;DHT22;4623;54.310;10.112;2023-02-01T03:05:52;6.10;99.90
9177;DHT22;4623;54.310;10.112;2023-02-01T03:08:25;6.10;99.90
9177;DHT22;4623;54.310;10.112;2023-02-01T03:11:01;6.10;99.90
9177;DHT22;4623;54.310;10.112;2023-02-01T03:13:33;6.10;99.90
9177;DHT22;4623;54.310;10.112;2023-02-01T03:19:05;6.10;99.90
9177;DHT22;4623;54.310;10.112;2023-02-01T03:21:38;6.10;99.90
9177;DHT22;4623;54.310;10.112;2023-02-01T03:24:17;6.10;99.90
9177;DHT22;4623;54.310;10.112;2023-02-01T03:26:48;6.10;99.90
9177;DHT22;4623;54.310;10.112;2023-02-01T03:29:19;6.10;99.90
9177;DHT22;4623;54.310;10.112;2023-02-01T03:31:46;6.10;99.90
9177;DHT22;4623;54.310;10.112;2023-02-01T03:34:12;6.10;99.90
9177;DHT22;4623;54.310;10.112;2023-02-01T03:37:00;6.10;99.90
9177;DHT22;4623;54.310;10.112;2023-02-01T03:39:34;6.10;99.90
9177;DHT22;4623;54.310;10.112;2023-02-01T03:42:16;6.10;99.90
9177;DHT22;4623;54.310;10.112;2023-02-01T03:47:30;6.30;99.90
9177;DHT22;4623;54.310;10.112;2023-02-01T03:50:05;6.30;99.90
9177;DHT22;4623;54.310;10.112;2023-02-01T03:55:08;6.30;99.90
9177;DHT22;4623;54.310;10.112;2023-02-01T03:57:38;6.10;99.90
9177;DHT22;4623;54.310;10.112;2023-02-01T04:00:25;5.90;99.90
9177;DHT22;4623;54.310;10.112;2023-02-01T04:02:52;5.70;99.90
9177;DHT22;4623;54.310;10.112;2023-02-01T04:05:18;5.40;99.90
9177;DHT22;4623;54.310;10.112;2023-02-01T04:07:43;5.40;99.90
9177;DHT22;4623;54.310;10.112;2023-02-01T04:10:09;5.30;99.90
9177;DHT22;4623;54.310;10.112;2023-02-01T04:12:36;5.20;99.90
9177;DHT22;4623;54.310;10.112;2023-02-01T04:15:01;5.20;99.90
9177;DHT22;4623;54.310;10.112;2023-02-01T04:17:27;5.20;99.90
9177;DHT22;4623;54.310;10.112;2023-02-01T04:19:53;5.10;99.90
9177;DHT22;4623;54.310;10.112;2023-02-01T04:22:18;5.10;99.90
9177;DHT22;4623;54.310;10.112;2023-02-01T04:24:44;5.20;99.90
9177;DHT22;4623;54.310;10.112;2023-02-01T04:27:09;5.20;99.90
9177;DHT22;4623;54.310;10.112;2023-02-01T04:29:35;5.30;99.90
9177;DHT22;4623;54.310;10.112;2023-02-01T04:32:00;5.20;99.90
9177;DHT22;4623;54.310;10.112;2023-02-01T04:34:26;5.20;99.90
9177;DHT22;4623;54.310;10.112;2023-02-01T04:36:52;5.20;99.90
9177;DHT22;4623;54.310;10.112;2023-02-01T04:39:17;5.20;99.90
9177;DHT22;4623;54.310;10.112;2023-02-01T04:41:43;5.20;99.90
9177;DHT22;4623;54.310;10.112;2023-02-01T04:44:13;5.20;99.90
9177;DHT22;4623;54.310;10.112;2023-02-01T04:46:40;5.20;99.90
9177;DHT22;4623;54.310;10.112;2023-02-01T04:49:05;5.10;99.90
9177;DHT22;4623;54.310;10.112;2023-02-01T04:51:31;5.10;99.90
9177;DHT22;4623;54.310;10.112;2023-02-01T04:53:56;5.00;99.90
9177;DHT22;4623;54.310;10.112;2023-02-01T04:56:22;5.00;99.90
9177;DHT22;4623;54.310;10.112;2023-02-01T04:58:47;5.00;99.90
9177;DHT22;4623;54.310;10.112;2023-02-01T05:01:13;5.00;99.90
9177;DHT22;4623;54.310;10.112;2023-02-01T05:03:38;5.00;99.90
9177;DHT22;4623;54.310;10.112;2023-02-01T05:06:04;5.00;99.90
9177;DHT22;4623;54.310;10.112;2023-02-01T05:08:30;5.00;99.90
9177;DHT22;4623;54.310;10.112;2023-02-01T05:10:56;5.00;99.90
9177;DHT22;4623;54.310;10.112;2023-02-01T05:13:22;5.00;99.90
9177;DHT22;4623;54.310;10.112;2023-02-01T05:16:06;5.00;99.90
9177;DHT22;4623;54.310;10.112;2023-02-01T05:18:32;5.10;99.90
9177;DHT22;4623;54.310;10.112;2023-02-01T05:20:57;5.10;99.90
9177;DHT22;4623;54.310;10.112;2023-02-01T05:23:23;5.10;99.90
9177;DHT22;4623;54.310;10.112;2023-02-01T05:25:48;5.10;99.90
9177;DHT22;4623;54.310;10.112;2023-02-01T05:28:14;5.10;99.90
9177;DHT22;4623;54.310;10.112;2023-02-01T05:30:39;5.10;99.90
9177;DHT22;4623;54.310;10.112;2023-02-01T05:33:05;5.20;99.90
9177;DHT22;4623;54.310;10.112;2023-02-01T05:35:30;5.20;99.90
9177;DHT22;4623;54.310;10.112;2023-02-01T05:37:56;5.30;99.90
9177;DHT22;4623;54.310;10.112;2023-02-01T05:40:22;5.30;99.90
9177;DHT22;4623;54.310;10.112;2023-02-01T05:42:47;5.40;99.90
9177;DHT22;4623;54.310;10.112;2023-02-01T05:45:13;5.50;99.90
9177;DHT22;4623;54.310;10.112;2023-02-01T05:47:39;5.60;99.90
9177;DHT22;4623;54.310;10.112;2023-02-01T05:50:05;5.50;99.90
9177;DHT22;4623;54.310;10.112;2023-02-01T05:52:30;5.60;99.90
9177;DHT22;4623;54.310;10.112;2023-02-01T05:54:56;5.60;99.90
9177;DHT22;4623;54.310;10.112;2023-02-01T05:57:21;5.60;99.90
9177;DHT22;4623;54.310;10.112;2023-02-01T05:59:47;5.60;99.90
9177;DHT22;4623;54.310;10.112;2023-02-01T06:02:16;5.50;99.90
9177;DHT22;4623;54.310;10.112;2023-02-01T06:04:42;5.60;99.90
9177;DHT22;4623;54.310;10.112;2023-02-01T06:07:08;5.50;99.90
9177;DHT22;4623;54.310;10.112;2023-02-01T06:09:36;5.60;99.90
9177;DHT22;4623;54.310;10.112;2023-02-01T06:12:02;5.60;99.90
9177;DHT22;4623;54.310;10.112;2023-02-01T06:14:28;5.70;99.90
9177;DHT22;4623;54.310;10.112;2023-02-01T06:16:56;5.70;99.90
9177;DHT22;4623;54.310;10.112;2023-02-01T06:19:23;5.70;99.90
9177;DHT22;4623;54.310;10.112;2023-02-01T06:21:48;5.70;99.90
9177;DHT22;4623;54.310;10.112;2023-02-01T06:24:14;5.70;99.90
9177;DHT22;4623;54.310;10.112;2023-02-01T06:26:40;5.70;99.90
9177;DHT22;4623;54.310;10.112;2023-02-01T06:29:12;5.60;99.90
9177;DHT22;4623;54.310;10.112;2023-02-01T06:31:38;5.60;99.90
9177;DHT22;4623;54.310;10.112;2023-02-01T06:34:03;5.50;99.90
9177;DHT22;4623;54.310;10.112;2023-02-01T06:36:29;5.50;99.90
9177;DHT22;4623;54.310;10.112;2023-02-01T06:38:58;5.50;99.90
9177;DHT22;4623;54.310;10.112;2023-02-01T06:41:25;5.50;99.90
9177;DHT22;4623;54.310;10.112;2023-02-01T06:43:51;5.50;99.90
9177;DHT22;4623;54.310;10.112;2023-02-01T06:46:17;5.50;99.90
9177;DHT22;4623;54.310;10.112;2023-02-01T06:48:43;5.50;99.90
9177;DHT22;4623;54.310;10.112;2023-02-01T06:51:19;5.50;99.90
9177;DHT22;4623;54.310;10.112;2023-02-01T06:53:45;5.40;99.90
9177;DHT22;4623;54.310;10.112;2023-02-01T06:56:11;5.40;99.90
9177;DHT22;4623;54.310;10.112;2023-02-01T06:58:36;5.40;99.90
9177;DHT22;4623;54.310;10.112;2023-02-01T07:01:05;5.40;99.90
9177;DHT22;4623;54.310;10.112;2023-02-01T07:03:31;5.40;99.90
9177;DHT22;4623;54.310;10.112;2023-02-01T07:05:57;5.50;99.90
9177;DHT22;4623;54.310;10.112;2023-02-01T07:08:30;5.50;99.90
9177;DHT22;4623;54.310;10.112;2023-02-01T07:10:56;5.50;99.90
9177;DHT22;4623;54.310;10.112;2023-02-01T07:13:21;5.50;99.90
9177;DHT22;4623;54.310;10.112;2023-02-01T07:15:47;5.50;99.90
9177;DHT22;4623;54.310;10.112;2023-02-01T07:18:14;5.40;99.90
9177;DHT22;4623;54.310;10.112;2023-02-01T07:20:40;5.40;99.90
9177;DHT22;4623;54.310;10.112;2023-02-01T07:23:05;5.50;99.90
9177;DHT22;4623;54.310;10.112;2023-02-01T07:25:31;5.50;99.90
9177;DHT22;4623;54.310;10.112;2023-02-01T07:27:57;5.50;99.90
9177;DHT22;4623;54.310;10.112;2023-02-01T07:30:23;5.50;99.90
9177;DHT22;4623;54.310;10.112;2023-02-01T07:32:48;5.60;99.90
9177;DHT22;4623;54.310;10.112;2023-02-01T07:35:14;5.60;99.90
9177;DHT22;4623;54.310;10.112;2023-02-01T07:37:40;5.60;99.90
9177;DHT22;4623;54.310;10.112;2023-02-01T07:40:06;5.70;99.90
9177;DHT22;4623;54.310;10.112;2023-02-01T07:42:32;5.70;99.90
9177;DHT22;4623;54.310;10.112;2023-02-01T07:44:57;5.80;99.90
9177;DHT22;4623;54.310;10.112;2023-02-01T07:47:23;5.80;99.90
9177;DHT22;4623;54.310;10.112;2023-02-01T07:49:48;5.80;99.90
9177;DHT22;4623;54.310;10.112;2023-02-01T07:52:14;5.90;99.90
9177;DHT22;4623;54.310;10.112;2023-02-01T07:54:42;5.90;99.90
9177;DHT22;4623;54.310;10.112;2023-02-01T07:57:08;5.90;99.90
9177;DHT22;4623;54.310;10.112;2023-02-01T07:59:34;6.00;99.90
9177;DHT22;4623;54.310;10.112;2023-02-01T08:02:00;6.00;99.90
9177;DHT22;4623;54.310;10.112;2023-02-01T08:04:25;6.10;99.90
9177;DHT22;4623;54.310;10.112;2023-02-01T08:06:51;6.10;99.90
9177;DHT22;4623;54.310;10.112;2023-02-01T08:09:16;6.10;99.90
9177;DHT22;4623;54.310;10.112;2023-02-01T08:11:42;6.20;99.90
9177;DHT22;4623;54.310;10.112;2023-02-01T08:14:08;6.20;99.90
9177;DHT22;4623;54.310;10.112;2023-02-01T08:16:34;6.20;99.90
9177;DHT22;4623;54.310;10.112;2023-02-01T08:19:01;6.10;99.90
9177;DHT22;4623;54.310;10.112;2023-02-01T08:21:28;6.00;99.90
9177;DHT22;4623;54.310;10.112;2023-02-01T08:24:03;5.90;99.90
9177;DHT22;4623;54.310;10.112;2023-02-01T08:26:29;5.90;99.90
9177;DHT22;4623;54.310;10.112;2023-02-01T08:28:56;6.00;99.90
9177;DHT22;4623;54.310;10.112;2023-02-01T08:31:24;6.10;99.90
9177;DHT22;4623;54.310;10.112;2023-02-01T08:33:52;6.20;99.90
9177;DHT22;4623;54.310;10.112;2023-02-01T08:36:19;6.30;99.90
9177;DHT22;4623;54.310;10.112;2023-02-01T08:38:45;6.40;99.90
9177;DHT22;4623;54.310;10.112;2023-02-01T08:41:14;6.50;99.90
9177;DHT22;4623;54.310;10.112;2023-02-01T08:43:41;6.40;99.90
9177;DHT22;4623;54.310;10.112;2023-02-01T08:46:07;6.50;99.90
9177;DHT22;4623;54.310;10.112;2023-02-01T08:48:33;6.50;99.90
9177;DHT22;4623;54.310;10.112;2023-02-01T08:51:04;6.40;99.90
9177;DHT22;4623;54.310;10.112;2023-02-01T08:53:30;6.50;99.90
9177;DHT22;4623;54.310;10.112;2023-02-01T08:55:56;6.40;99.90
9177;DHT22;4623;54.310;10.112;2023-02-01T08:58:21;6.50;99.90
9177;DHT22;4623;54.310;10.112;2023-02-01T09:00:48;6.90;99.90
9177;DHT22;4623;54.310;10.112;2023-02-01T09:03:14;7.60;99.90
9177;DHT22;4623;54.310;10.112;2023-02-01T09:05:39;8.40;99.90
9177;DHT22;4623;54.310;10.112;2023-02-01T09:08:05;8.60;99.90
9177;DHT22;4623;54.310;10.112;2023-02-01T09:10:30;8.10;99.90
9177;DHT22;4623;54.310;10.112;2023-02-01T09:12:56;8.20;99.90
9177;DHT22;4623;54.310;10.112;2023-02-01T09:15:22;8.70;99.90
9177;DHT22;4623;54.310;10.112;2023-02-01T09:17:47;9.30;99.90
9177;DHT22;4623;54.310;10.112;2023-02-01T09:20:14;10.00;99.90
9177;DHT22;4623;54.310;10.112;2023-02-01T09:22:40;10.20;99.90
9177;DHT22;4623;54.310;10.112;2023-02-01T09:25:06;9.80;99.90
9177;DHT22;4623;54.310;10.112;2023-02-01T09:27:32;9.40;99.90
9177;DHT22;4623;54.310;10.112;2023-02-01T09:29:57;8.80;99.90
9177;DHT22;4623;54.310;10.112;2023-02-01T09:32:23;9.00;99.90
9177;DHT22;4623;54.310;10.112;2023-02-01T09:34:49;9.60;99.90
9177;DHT22;4623;54.310;10.112;2023-02-01T09:37:16;9.50;99.90
9177;DHT22;4623;54.310;10.112;2023-02-01T09:39:41;9.10;99.90
9177;DHT22;4623;54.310;10.112;2023-02-01T09:42:19;8.60;99.90
9177;DHT22;4623;54.310;10.112;2023-02-01T09:45:14;8.50;99.90
9177;DHT22;4623;54.310;10.112;2023-02-01T09:47:54;8.40;99.90
9177;DHT22;4623;54.310;10.112;2023-02-01T09:50:28;8.10;99.90
9177;DHT22;4623;54.310;10.112;2023-02-01T09:53:06;8.10;99.90
9177;DHT22;4623;54.310;10.112;2023-02-01T09:55:45;8.10;99.90
9177;DHT22;4623;54.310;10.112;2023-02-01T09:58:17;8.10;99.90
9177;DHT22;4623;54.310;10.112;2023-02-01T10:00:54;8.70;99.90
9177;DHT22;4623;54.310;10.112;2023-02-01T10:03:21;8.70;99.90
9177;DHT22;4623;54.310;10.112;2023-02-01T10:11:42;8.30;99.90
9177;DHT22;4623;54.310;10.112;2023-02-01T10:16:49;8.20;99.90
9177;DHT22;4623;54.310;10.112;2023-02-01T10:19:34;8.10;99.90
9177;DHT22;4623;54.310;10.112;2023-02-01T10:22:09;7.90;99.90
9177;DHT22;4623;54.310;10.112;2023-02-01T10:24:53;7.90;99.90
9177;DHT22;4623;54.310;10.112;2023-02-01T10:27:29;8.00;99.90
9177;DHT22;4623;54.310;10.112;2023-02-01T10:30:00;8.10;99.90
9177;DHT22;4623;54.310;10.112;2023-02-01T10:32:32;8.40;99.90
9177;DHT22;4623;54.310;10.112;2023-02-01T10:35:02;8.50;99.90
9177;DHT22;4623;54.310;10.112;2023-02-01T10:37:31;8.70;99.90
9177;DHT22;4623;54.310;10.112;2023-02-01T10:40:00;8.80;99.90
9177;DHT22;4623;54.310;10.112;2023-02-01T10:42:28;9.80;99.90
9177;DHT22;4623;54.310;10.112;2023-02-01T10:44:57;11.50;99.90
9177;DHT22;4623;54.310;10.112;2023-02-01T10:47:24;12.00;99.90
9177;DHT22;4623;54.310;10.112;2023-02-01T10:50:13;11.60;99.90
9177;DHT22;4623;54.310;10.112;2023-02-01T10:52:46;10.50;99.90
9177;DHT22;4623;54.310;10.112;2023-02-01T10:55:48;9.70;99.90
9177;DHT22;4623;54.310;10.112;2023-02-01T10:58:35;9.30;99.90
9177;DHT22;4623;54.310;10.112;2023-02-01T11:01:10;8.90;99.90
9177;DHT22;4623;54.310;10.112;2023-02-01T11:03:42;8.50;99.90
9177;DHT22;4623;54.310;10.112;2023-02-01T11:08:55;8.00;99.90
9177;DHT22;4623;54.310;10.112;2023-02-01T11:11:22;7.70;99.90
9177;DHT22;4623;54.310;10.112;2023-02-01T11:14:08;7.50;99.90
9177;DHT22;4623;54.310;10.112;2023-02-01T11:16:38;7.40;99.90
9177;DHT22;4623;54.310;10.112;2023-02-01T11:19:04;7.20;99.90
9177;DHT22;4623;54.310;10.112;2023-02-01T11:21:31;7.00;99.90
9177;DHT22;4623;54.310;10.112;2023-02-01T11:24:01;6.90;99.90
9177;DHT22;4623;54.310;10.112;2023-02-01T11:26:28;6.90;99.90
9177;DHT22;4623;54.310;10.112;2023-02-01T11:29:03;6.80;99.90
9177;DHT22;4623;54.310;10.112;2023-02-01T11:31:30;6.70;99.90
9177;DHT22;4623;54.310;10.112;2023-02-01T11:34:04;6.60;99.90
9177;DHT22;4623;54.310;10.112;2023-02-01T11:36:32;6.60;99.90
9177;DHT22;4623;54.310;10.112;2023-02-01T11:39:14;6.70;99.90
9177;DHT22;4623;54.310;10.112;2023-02-01T11:42:06;6.80;99.90
9177;DHT22;4623;54.310;10.112;2023-02-01T11:44:35;6.80;99.90
9177;DHT22;4623;54.310;10.112;2023-02-01T11:47:24;6.90;99.90
9177;DHT22;4623;54.310;10.112;2023-02-01T11:49:55;7.10;99.90
9177;DHT22;4623;54.310;10.112;2023-02-01T12:01:14;7.30;99.90
9177;DHT22;4623;54.310;10.112;2023-02-01T12:06:38;7.10;99.90
9177;DHT22;4623;54.310;10.112;2023-02-01T12:09:23;6.60;99.90
9177;DHT22;4623;54.310;10.112;2023-02-01T12:12:07;5.80;99.90
9177;DHT22;4623;54.310;10.112;2023-02-01T12:14:47;5.40;99.90
9177;DHT22;4623;54.310;10.112;2023-02-01T12:20:09;5.30;99.90
9177;DHT22;4623;54.310;10.112;2023-02-01T12:39:26;6.00;99.90
9177;DHT22;4623;54.310;10.112;2023-02-01T12:44:39;6.10;99.90
9177;DHT22;4623;54.310;10.112;2023-02-01T12:52:43;6.40;99.90
9177;DHT22;4623;54.310;10.112;2023-02-01T12:55:15;6.40;99.90
9177;DHT22;4623;54.310;10.112;2023-02-01T12:57:46;6.40;99.90
9177;DHT22;4623;54.310;10.112;2023-02-01T13:00:22;6.50;99.90
9177;DHT22;4623;54.310;10.112;2023-02-01T13:03:15;6.60;99.90
9177;DHT22;4623;54.310;10.112;2023-02-01T13:06:06;6.70;99.90
9177;DHT22;4623;54.310;10.112;2023-02-01T13:08:46;6.80;99.90
9177;DHT22;4623;54.310;10.112;2023-02-01T13:11:20;6.90;99.90
9177;DHT22;4623;54.310;10.112;2023-02-01T13:16:35;7.00;99.90
9177;DHT22;4623;54.310;10.112;2023-02-01T13:19:24;7.40;99.90
9177;DHT22;4623;54.310;10.112;2023-02-01T13:22:05;7.30;99.90
9177;DHT22;4623;54.310;10.112;2023-02-01T13:24:52;6.90;99.90
9177;DHT22;4623;54.310;10.112;2023-02-01T13:27:19;6.50;99.90
9177;DHT22;4623;54.310;10.112;2023-02-01T13:30:10;6.10;99.90
9177;DHT22;4623;54.310;10.112;2023-02-01T13:35:40;5.80;99.90
9177;DHT22;4623;54.310;10.112;2023-02-01T13:43:51;6.30;99.90
9177;DHT22;4623;54.310;10.112;2023-02-01T13:46:18;6.40;99.90
9177;DHT22;4623;54.310;10.112;2023-02-01T13:48:59;6.30;99.90
9177;DHT22;4623;54.310;10.112;2023-02-01T13:53:58;6.40;99.90
9177;DHT22;4623;54.310;10.112;2023-02-01T13:56:24;6.40;99.90
9177;DHT22;4623;54.310;10.112;2023-02-01T13:58:50;6.40;99.90
9177;DHT22;4623;54.310;10.112;2023-02-01T14:06:35;6.70;99.90
9177;DHT22;4623;54.310;10.112;2023-02-01T14:11:46;7.00;99.90
9177;DHT22;4623;54.310;10.112;2023-02-01T14:16:42;6.90;99.90
9177;DHT22;4623;54.310;10.112;2023-02-01T14:19:09;6.90;99.90
9177;DHT22;4623;54.310;10.112;2023-02-01T14:21:53;7.00;99.90
9177;DHT22;4623;54.310;10.112;2023-02-01T14:24:31;6.90;99.90
9177;DHT22;4623;54.310;10.112;2023-02-01T14:27:13;7.00;99.90
9177;DHT22;4623;54.310;10.112;2023-02-01T14:29:43;7.20;99.90
9177;DHT22;4623;54.310;10.112;2023-02-01T14:32:26;7.10;99.90
9177;DHT22;4623;54.310;10.112;2023-02-01T14:34:59;7.20;99.90
9177;DHT22;4623;54.310;10.112;2023-02-01T14:37:28;7.10;99.90
9177;DHT22;4623;54.310;10.112;2023-02-01T14:40:05;7.00;99.90
9177;DHT22;4623;54.310;10.112;2023-02-01T14:42:45;7.10;99.90
9177;DHT22;4623;54.310;10.112;2023-02-01T15:04:14;6.80;99.90
9177;DHT22;4623;54.310;10.112;2023-02-01T15:06:48;6.70;99.90
9177;DHT22;4623;54.310;10.112;2023-02-01T15:14:42;6.60;99.90
9177;DHT22;4623;54.310;10.112;2023-02-01T15:17:36;6.60;99.90
9177;DHT22;4623;54.310;10.112;2023-02-01T15:20:04;6.60;99.90
9177;DHT22;4623;54.310;10.112;2023-02-01T15:22:36;6.70;99.90
9177;DHT22;4623;54.310;10.112;2023-02-01T15:25:02;6.70;99.90
9177;DHT22;4623;54.310;10.112;2023-02-01T15:27:29;6.60;99.90
9177;DHT22;4623;54.310;10.112;2023-02-01T15:30:24;6.60;99.90
9177;DHT22;4623;54.310;10.112;2023-02-01T15:33:03;6.60;99.90
9177;DHT22;4623;54.310;10.112;2023-02-01T15:41:15;6.60;99.90
9177;DHT22;4623;54.310;10.112;2023-02-01T15:44:03;6.60;99.90
9177;DHT22;4623;54.310;10.112;2023-02-01T15:48:58;6.50;99.90
9177;DHT22;4623;54.310;10.112;2023-02-01T15:51:25;6.50;99.90
9177;DHT22;4623;54.310;10.112;2023-02-01T15:53:56;6.50;99.90
9177;DHT22;4623;54.310;10.112;2023-02-01T15:56:34;6.50;99.90
9177;DHT22;4623;54.310;10.112;2023-02-01T15:59:02;6.40;99.90
9177;DHT22;4623;54.310;10.112;2023-02-01T16:01:30;6.40;99.90
9177;DHT22;4623;54.310;10.112;2023-02-01T16:04:45;6.50;99.90
9177;DHT22;4623;54.310;10.112;2023-02-01T16:07:03;6.60;99.90
9177;DHT22;4623;54.310;10.112;2023-02-01T16:09:41;6.60;99.90
9177;DHT22;4623;54.310;10.112;2023-02-01T16:12:32;6.60;99.90
9177;DHT22;4623;54.310;10.112;2023-02-01T16:15:00;6.60;99.90
9177;DHT22;4623;54.310;10.112;2023-02-01T16:17:25;6.60;99.90
9177;DHT22;4623;54.310;10.112;2023-02-01T16:19:51;6.70;99.90
9177;DHT22;4623;54.310;10.112;2023-02-01T16:22:17;6.70;99.90
9177;DHT22;4623;54.310;10.112;2023-02-01T16:24:42;6.70;99.90
9177;DHT22;4623;54.310;10.112;2023-02-01T16:27:08;6.70;99.90
9177;DHT22;4623;54.310;10.112;2023-02-01T16:29:33;6.70;99.90
9177;DHT22;4623;54.310;10.112;2023-02-01T16:31:59;6.60;99.90
9177;DHT22;4623;54.310;10.112;2023-02-01T16:34:25;6.60;99.90
9177;DHT22;4623;54.310;10.112;2023-02-01T16:36:51;6.60;99.90
9177;DHT22;4623;54.310;10.112;2023-02-01T16:39:18;6.50;99.90
9177;DHT22;4623;54.310;10.112;2023-02-01T16:41:44;6.40;99.90
9177;DHT22;4623;54.310;10.112;2023-02-01T16:44:10;6.40;99.90
9177;DHT22;4623;54.310;10.112;2023-02-01T16:46:40;6.40;99.90
9177;DHT22;4623;54.310;10.112;2023-02-01T16:49:16;6.40;99.90
9177;DHT22;4623;54.310;10.112;2023-02-01T16:51:42;6.40;99.90
9177;DHT22;4623;54.310;10.112;2023-02-01T16:54:08;6.40;99.90
9177;DHT22;4623;54.310;10.112;2023-02-01T16:56:34;6.50;99.90
9177;DHT22;4623;54.310;10.112;2023-02-01T16:59:01;6.50;99.90
9177;DHT22;4623;54.310;10.112;2023-02-01T17:01:26;6.50;99.90
9177;DHT22;4623;54.310;10.112;2023-02-01T17:03:52;6.60;99.90
9177;DHT22;4623;54.310;10.112;2023-02-01T17:06:20;6.60;99.90
9177;DHT22;4623;54.310;10.112;2023-02-01T17:08:50;6.60;99.90
9177;DHT22;4623;54.310;10.112;2023-02-01T17:11:16;6.60;99.90
9177;DHT22;4623;54.310;10.112;2023-02-01T17:13:43;6.60;99.90
9177;DHT22;4623;54.310;10.112;2023-02-01T17:16:22;6.70;99.90
9177;DHT22;4623;54.310;10.112;2023-02-01T17:18:58;6.70;99.90
9177;DHT22;4623;54.310;10.112;2023-02-01T17:21:26;6.70;99.90
9177;DHT22;4623;54.310;10.112;2023-02-01T17:23:52;6.70;99.90
9177;DHT22;4623;54.310;10.112;2023-02-01T17:26:18;6.80;99.90
9177;DHT22;4623;54.310;10.112;2023-02-01T17:28:43;6.80;99.90
9177;DHT22;4623;54.310;10.112;2023-02-01T17:31:13;6.70;99.90
9177;DHT22;4623;54.310;10.112;2023-02-01T17:33:39;6.70;99.90
9177;DHT22;4623;54.310;10.112;2023-02-01T17:36:05;6.60;99.90
9177;DHT22;4623;54.310;10.112;2023-02-01T17:38:31;6.60;99.90
9177;DHT22;4623;54.310;10.112;2023-02-01T17:40:57;6.60;99.90
9177;DHT22;4623;54.310;10.112;2023-02-01T17:43:24;6.50;99.90
9177;DHT22;4623;54.310;10.112;2023-02-01T17:45:57;6.50;99.90
9177;DHT22;4623;54.310;10.112;2023-02-01T17:48:24;6.40;99.90
9177;DHT22;4623;54.310;10.112;2023-02-01T17:50:50;6.50;99.90
9177;DHT22;4623;54.310;10.112;2023-02-01T17:53:19;6.40;99.90
9177;DHT22;4623;54.310;10.112;2023-02-01T17:55:48;6.40;99.90
9177;DHT22;4623;54.310;10.112;2023-02-01T17:58:14;6.50;99.90
9177;DHT22;4623;54.310;10.112;2023-02-01T18:00:41;6.50;99.90
9177;DHT22;4623;54.310;10.112;2023-02-01T18:03:16;6.50;99.90
9177;DHT22;4623;54.310;10.112;2023-02-01T18:05:43;6.50;99.90
9177;DHT22;4623;54.310;10.112;2023-02-01T18:08:15;6.50;99.90
9177;DHT22;4623;54.310;10.112;2023-02-01T18:10:41;6.50;99.90
9177;DHT22;4623;54.310;10.112;2023-02-01T18:13:08;6.60;99.90
9177;DHT22;4623;54.310;10.112;2023-02-01T18:15:33;6.60;99.90
9177;DHT22;4623;54.310;10.112;2023-02-01T18:18:00;6.70;99.90
9177;DHT22;4623;54.310;10.112;2023-02-01T18:20:26;6.60;99.90
9177;DHT22;4623;54.310;10.112;2023-02-01T18:22:52;6.60;99.90
9177;DHT22;4623;54.310;10.112;2023-02-01T18:25:23;6.60;99.90
9177;DHT22;4623;54.310;10.112;2023-02-01T18:27:50;6.50;99.90
9177;DHT22;4623;54.310;10.112;2023-02-01T18:30:17;6.50;99.90
9177;DHT22;4623;54.310;10.112;2023-02-01T18:32:43;6.50;99.90
9177;DHT22;4623;54.310;10.112;2023-02-01T18:35:18;6.50;99.90
9177;DHT22;4623;54.310;10.112;2023-02-01T18:37:44;6.50;99.90
9177;DHT22;4623;54.310;10.112;2023-02-01T18:40:19;6.40;99.90